Time;durP1;ratioP1;P1;durP2;ratioP2;P2;SDS_P1;SDS_P2;PMS_P1;PMS_P2;Temp;Humidity;BMP_temperature;BMP_pressure;BME280_temperature;BME280_humidity;BME280_pressure;Samples;Min_cycle;Max_cycle;Signal;HPM_P1;HPM_P2
2023/08/11 08:03:34;;;;;;;;;;;;;;;22.89;52.58;100388.50;1069974;54;19947;31
2023/08/11 08:12:15;;;;;;;;;;;;;;;23.70;50.35;100389.88;1071168;54;19969;31
2023/08/11 08:13:18;;;;;;;;;;;;;;;23.82;50.46;100383.44;1071390;47;19932;31
2023/08/11 08:16:27;;;;;;;;;;;;;;;24.09;49.76;100385.13;1071461;54;20731;31
2023/08/11 08:18:36;;;;;;;;;;;;;;;24.14;48.66;100383.38;1071427;54;20818;31
2023/08/11 08:19:39;;;;;;;;;;;;;;;24.28;49.10;100386.78;1074910;39;21323;31
2023/08/11 08:20:44;;;;;;;;;;;;;;;24.18;48.63;100391.13;1071311;47;20719;31
2023/08/11 08:21:46;;;;;;;;;;;;;;;23.99;48.60;100389.19;1071394;54;20009;31
2023/08/11 08:23:53;;;;;;;;;;;;;;;24.16;48.59;100385.88;1071297;54;20006;31
2023/08/11 08:26:00;;;;;;;;;;;;;;;24.35;47.92;100388.59;1071608;46;19973;31
2023/08/11 08:28:07;;;;;;;;;;;;;;;24.49;46.66;100389.28;1071195;54;20778;31
2023/08/11 08:29:11;;;;;;;;;;;;;;;24.41;47.33;100385.81;1071336;47;19950;31
2023/08/11 08:30:16;;;;;;;;;;;;;;;24.65;47.44;100385.94;1071600;47;19943;31
2023/08/11 08:31:18;;;;;;;;;;;;;;;24.80;47.08;100387.47;1071332;47;20680;31
2023/08/11 08:33:24;;;;;;;;;;;;;;;25.05;46.65;100379.13;1071380;54;19976;31
2023/08/11 08:34:30;;;;;;;;;;;;;;;25.22;46.31;100374.63;1073487;39;20218;31
2023/08/11 08:35:34;;;;;;;;;;;;;;;25.43;45.88;100385.28;1074634;39;21339;31
2023/08/11 08:36:37;;;;;;;;;;;;;;;25.48;44.48;100375.31;1071484;46;20335;31
2023/08/11 08:37:41;;;;;;;;;;;;;;;25.61;44.78;100382.47;1071626;46;20756;31
2023/08/11 08:38:44;;;;;;;;;;;;;;;25.76;45.42;100370.22;1071250;47;20629;31
2023/08/11 08:39:49;;;;;;;;;;;;;;;25.86;45.32;100373.19;1071349;47;19947;31
2023/08/11 08:40:51;;;;;;;;;;;;;;;25.97;43.59;100380.56;1071316;54;19997;31
2023/08/11 08:42:57;;;;;;;;;;;;;;;25.75;43.92;100374.03;1071386;54;19935;31
2023/08/11 08:44:00;;;;;;;;;;;;;;;25.91;44.71;100376.03;1071151;47;19996;31
2023/08/11 08:45:06;;;;;;;;;;;;;;;26.10;44.44;100374.03;1071211;47;20704;31
2023/08/11 08:46:11;;;;;;;;;;;;;;;26.27;43.90;100374.13;1071370;54;19950;31
2023/08/11 08:47:15;;;;;;;;;;;;;;;26.15;43.05;100381.53;1074570;39;21324;31
2023/08/11 08:48:21;;;;;;;;;;;;;;;26.23;42.85;100374.84;1071384;47;20767;31
2023/08/11 08:49:27;;;;;;;;;;;;;;;26.29;43.87;100369.22;1071294;47;20748;31
2023/08/11 08:50:34;;;;;;;;;;;;;;;26.28;43.85;100369.47;1076698;39;20411;31
2023/08/11 08:51:41;;;;;;;;;;;;;;;26.43;43.38;100366.22;1071302;54;19946;31
2023/08/11 08:52:46;;;;;;;;;;;;;;;26.57;43.08;100364.88;1089043;47;19923;-89
2023/08/11 08:54:57;;;;;;;;;;;;;;;26.96;42.16;100366.16;1088947;47;19937;-87
2023/08/11 08:57:04;;;;;;;;;;;;;;;27.06;41.65;100358.13;1071241;54;20801;31
2023/08/11 09:00:20;;;;;;;;;;;;;;;26.49;42.31;100365.25;1080550;39;21398;31
2023/08/11 09:01:25;;;;;;;;;;;;;;;26.65;42.29;100368.28;1071469;54;19947;31
2023/08/11 09:02:28;;;;;;;;;;;;;;;26.64;41.71;100367.47;1071378;54;20695;31
2023/08/11 09:03:35;;;;;;;;;;;;;;;26.63;42.23;100363.06;1071227;46;20744;31
2023/08/11 09:05:41;;;;;;;;;;;;;;;27.22;41.51;100357.31;1071284;54;20350;31
2023/08/11 09:06:47;;;;;;;;;;;;;;;27.24;41.32;100359.81;1071302;46;20005;31
2023/08/11 09:07:52;;;;;;;;;;;;;;;27.49;40.55;100358.59;1071556;46;20795;31
2023/08/11 09:08:54;;;;;;;;;;;;;;;27.45;41.11;100357.41;1071412;47;19976;31
2023/08/11 09:10:00;;;;;;;;;;;;;;;27.55;40.03;100355.69;1077222;31;21391;31
2023/08/11 09:11:03;;;;;;;;;;;;;;;27.60;40.56;100357.69;1071402;46;19930;31
2023/08/11 09:12:10;;;;;;;;;;;;;;;27.76;39.83;100352.41;1071505;46;19960;31
2023/08/11 09:13:14;;;;;;;;;;;;;;;27.92;39.82;100353.47;1074851;39;21326;31
2023/08/11 09:14:19;;;;;;;;;;;;;;;27.89;40.55;100351.22;1071506;46;20735;31
2023/08/11 09:15:22;;;;;;;;;;;;;;;27.97;40.21;100350.78;1071517;46;19981;31
2023/08/11 09:16:28;;;;;;;;;;;;;;;27.97;39.39;100348.88;1071467;47;20694;31
2023/08/11 09:17:31;;;;;;;;;;;;;;;28.16;39.78;100354.09;1071404;47;19930;31
2023/08/11 09:25:10;;;;;;;;;;;;;;;28.12;40.06;100339.19;1070835;54;19961;31
2023/08/11 09:26:15;;;;;;;;;;;;;;;28.36;39.87;100337.03;1071180;46;19973;31
2023/08/11 09:27:22;;;;;;;;;;;;;;;28.54;39.46;100335.03;1071640;47;21390;31
2023/08/11 09:28:26;;;;;;;;;;;;;;;28.55;39.32;100336.69;1071603;46;20005;31
2023/08/11 09:30:32;;;;;;;;;;;;;;;28.77;39.03;100326.53;1088523;54;19978;-87
2023/08/11 09:32:39;;;;;;;;;;;;;;;28.93;38.68;100330.25;1071434;47;21058;31
2023/08/11 09:33:41;;;;;;;;;;;;;;;29.00;38.36;100334.69;1071515;47;19973;31
2023/08/11 09:34:43;;;;;;;;;;;;;;;29.22;37.71;100331.88;1071064;54;20307;31
2023/08/11 09:35:48;;;;;;;;;;;;;;;28.90;37.77;100332.69;1071512;47;19946;31
2023/08/11 09:36:51;;;;;;;;;;;;;;;28.73;38.91;100336.38;1071270;46;20668;31
2023/08/11 09:37:56;;;;;;;;;;;;;;;28.94;38.62;100336.56;1071326;54;20365;31
2023/08/11 09:40:08;;;;;;;;;;;;;;;29.34;38.28;100328.94;1071159;54;20669;31
2023/08/11 09:41:11;;;;;;;;;;;;;;;29.47;38.17;100334.03;1071315;54;19977;31
2023/08/11 09:42:17;;;;;;;;;;;;;;;29.35;37.93;100327.88;1071072;47;20771;31
2023/08/11 09:43:19;;;;;;;;;;;;;;;29.52;37.90;100324.97;1071201;47;20777;31
2023/08/11 09:44:24;;;;;;;;;;;;;;;29.68;37.54;100323.97;1071429;47;20024;31
2023/08/11 09:46:28;;;;;;;;;;;;;;;29.83;37.10;100320.47;1071189;54;20973;31
2023/08/11 09:47:33;;;;;;;;;;;;;;;29.65;37.21;100323.66;1071148;54;20694;31
2023/08/11 09:48:35;;;;;;;;;;;;;;;29.81;36.92;100322.66;1071174;54;20731;31
2023/08/11 09:49:41;;;;;;;;;;;;;;;30.03;37.07;100324.47;1071233;46;19950;31
2023/08/11 09:50:43;;;;;;;;;;;;;;;30.13;37.25;100324.50;1071336;47;19981;31
2023/08/11 09:51:48;;;;;;;;;;;;;;;30.23;36.48;100320.94;1071198;54;20687;31
2023/08/11 09:54:58;;;;;;;;;;;;;;;29.20;37.58;100320.28;1071247;54;19946;31
2023/08/11 09:56:03;;;;;;;;;;;;;;;29.30;37.66;100323.13;1071182;54;20270;31
2023/08/11 09:57:10;;;;;;;;;;;;;;;29.10;37.51;100318.28;1071293;47;19953;31
2023/08/11 09:58:14;;;;;;;;;;;;;;;29.27;37.88;100315.41;1074528;39;21288;31
2023/08/11 09:59:22;;;;;;;;;;;;;;;29.57;37.87;100325.00;1071183;47;20720;31
2023/08/11 10:01:26;;;;;;;;;;;;;;;29.83;37.21;100319.66;1071366;47;19954;31
2023/08/11 10:02:32;;;;;;;;;;;;;;;30.02;37.18;100323.66;1071233;47;20756;31
2023/08/11 10:03:36;;;;;;;;;;;;;;;30.09;36.70;100317.88;1071182;54;19953;31
2023/08/11 10:04:44;;;;;;;;;;;;;;;30.13;36.53;100320.94;1074390;39;20235;31
2023/08/11 10:05:48;;;;;;;;;;;;;;;30.29;36.15;100317.13;1071319;47;19946;31
2023/08/11 10:06:55;;;;;;;;;;;;;;;30.32;36.39;100324.84;1071182;47;19946;31
2023/08/11 10:07:57;;;;;;;;;;;;;;;30.20;36.14;100324.28;1071261;47;19974;31
2023/08/11 10:09:05;;;;;;;;;;;;;;;30.10;36.67;100318.72;1071093;54;20660;31
2023/08/11 10:10:07;;;;;;;;;;;;;;;30.24;36.30;100324.56;1071169;54;20739;31
2023/08/11 10:11:15;;;;;;;;;;;;;;;30.27;36.20;100330.34;1071216;47;20773;31
2023/08/11 10:12:19;;;;;;;;;;;;;;;30.45;36.07;100320.78;1071472;47;20750;31
2023/08/11 10:13:28;;;;;;;;;;;;;;;30.63;35.84;100322.22;1071113;47;19993;31
2023/08/11 10:14:31;;;;;;;;;;;;;;;30.65;35.40;100327.47;1071181;47;19946;31
2023/08/11 10:15:37;;;;;;;;;;;;;;;30.85;35.10;100321.16;1071234;47;20005;31
2023/08/11 10:16:41;;;;;;;;;;;;;;;30.63;35.13;100324.16;1071214;54;19946;31
2023/08/11 10:17:46;;;;;;;;;;;;;;;30.28;35.53;100325.66;1078010;39;20875;31
2023/08/11 10:18:49;;;;;;;;;;;;;;;30.03;35.77;100328.06;1071343;47;19950;31
2023/08/11 10:19:54;;;;;;;;;;;;;;;30.27;35.46;100322.09;1071142;47;20740;31
2023/08/11 10:22:10;;;;;;;;;;;;;;;30.03;35.71;100318.94;1077143;54;19951;-85
2023/08/11 10:23:13;;;;;;;;;;;;;;;30.37;34.96;100318.53;1071202;47;19947;31
2023/08/11 10:25:21;;;;;;;;;;;;;;;30.53;34.97;100316.66;1071059;54;20788;31
2023/08/11 10:26:27;;;;;;;;;;;;;;;30.57;35.06;100317.78;1071235;47;19978;31
2023/08/11 10:28:41;;;;;;;;;;;;;;;30.59;34.80;100321.13;1070831;54;20343;31
2023/08/11 10:29:44;;;;;;;;;;;;;;;30.92;34.17;100318.13;1071020;47;19962;31
2023/08/11 10:30:49;;;;;;;;;;;;;;;31.15;34.09;100315.94;1074509;39;20235;31
2023/08/11 10:31:54;;;;;;;;;;;;;;;31.21;33.81;100315.69;1071148;54;20665;31
2023/08/11 10:33:01;;;;;;;;;;;;;;;31.39;33.73;100311.53;1071085;54;20771;31
2023/08/11 10:34:05;;;;;;;;;;;;;;;31.36;33.07;100311.25;1071070;54;19954;31
2023/08/11 10:35:15;;;;;;;;;;;;;;;31.45;33.53;100314.28;1071198;47;19997;31
2023/08/11 10:36:21;;;;;;;;;;;;;;;31.51;32.96;100314.00;1071208;54;21647;31
2023/08/11 10:37:28;;;;;;;;;;;;;;;31.58;31.94;100314.53;1071083;47;20239;31
2023/08/11 10:39:43;;;;;;;;;;;;;;;31.80;32.46;100309.81;1070888;54;20759;31
2023/08/11 10:41:58;;;;;;;;;;;;;;;31.34;31.45;100311.53;1071076;54;20804;31
2023/08/11 10:44:04;;;;;;;;;;;;;;;31.32;32.16;100315.66;1071033;54;21064;31
2023/08/11 10:46:21;;;;;;;;;;;;;;;30.68;32.59;100318.63;1071107;54;19981;31
2023/08/11 10:47:26;;;;;;;;;;;;;;;30.87;32.97;100316.19;1071191;47;20713;31
2023/08/11 10:48:31;;;;;;;;;;;;;;;30.90;32.69;100309.28;1071134;47;20257;31
2023/08/11 10:49:33;;;;;;;;;;;;;;;31.11;32.46;100310.16;1071167;47;19977;31
2023/08/11 10:50:39;;;;;;;;;;;;;;;31.40;32.44;100306.81;1071190;47;20817;31
2023/08/11 10:51:41;;;;;;;;;;;;;;;31.57;32.17;100312.88;1071121;47;21001;31
2023/08/11 10:52:47;;;;;;;;;;;;;;;31.73;31.54;100304.59;1077791;39;20797;31
2023/08/11 10:54:59;;;;;;;;;;;;;;;31.77;31.61;100300.16;1070637;54;20778;31
2023/08/11 10:56:02;;;;;;;;;;;;;;;31.32;32.19;100304.63;1071191;47;20827;31
2023/08/11 10:57:09;;;;;;;;;;;;;;;31.53;32.17;100306.25;1070941;47;20005;31
2023/08/11 10:59:25;;;;;;;;;;;;;;;31.59;31.74;100307.09;1070954;54;19938;31
2023/08/11 11:00:27;;;;;;;;;;;;;;;31.61;31.64;100307.59;1070977;47;19953;31
2023/08/11 11:01:34;;;;;;;;;;;;;;;31.51;32.18;100302.09;1071004;54;20029;31
2023/08/11 11:02:42;;;;;;;;;;;;;;;31.45;32.74;100304.06;1071384;54;20366;31
2023/08/11 11:05:56;;;;;;;;;;;;;;;31.06;32.10;100312.91;1075086;54;20683;31
2023/08/11 11:06:58;;;;;;;;;;;;;;;30.87;32.78;100310.69;1071403;46;21368;-85
2023/08/11 11:08:05;;;;;;;;;;;;;;;30.91;32.47;100308.19;1072066;47;21078;31
2023/08/11 11:09:08;;;;;;;;;;;;;;;30.62;32.74;100306.75;1071450;46;19947;31
2023/08/11 11:10:15;;;;;;;;;;;;;;;29.98;33.31;100307.91;1075932;47;20645;-86
2023/08/11 11:11:18;;;;;;;;;;;;;;;29.79;33.73;100313.00;1071511;54;20798;31
2023/08/11 11:13:30;;;;;;;;;;;;;;;29.94;33.84;100310.38;1071618;54;19969;31
2023/08/11 11:14:36;;;;;;;;;;;;;;;29.90;33.95;100308.41;1071577;46;20888;31
2023/08/11 11:15:42;;;;;;;;;;;;;;;29.78;33.89;100309.44;1074695;39;21277;31
2023/08/11 11:23:06;;;;;;;;;;;;;;;29.62;34.01;100308.50;1070972;54;20018;31
2023/08/11 11:25:16;;;;;;;;;;;;;;;29.44;34.36;100311.69;1071235;47;20977;31
2023/08/11 11:27:24;;;;;;;;;;;;;;;29.53;34.50;100312.88;1071308;54;19989;31
2023/08/11 11:29:41;;;;;;;;;;;;;;;29.46;34.47;100304.00;1085064;54;20995;31
2023/08/11 11:31:49;;;;;;;;;;;;;;;29.53;34.80;100293.59;1071094;46;19969;31
2023/08/11 11:33:56;;;;;;;;;;;;;;;29.50;34.87;100294.09;1072691;54;21051;-88
2023/08/11 11:35:01;;;;;;;;;;;;;;;29.52;34.49;100290.00;1071055;54;19951;31
2023/08/11 11:36:03;;;;;;;;;;;;;;;29.35;35.01;100292.91;1071178;46;20784;31
2023/08/11 11:37:08;;;;;;;;;;;;;;;29.32;34.92;100292.59;1071330;47;19980;31
2023/08/11 11:38:11;;;;;;;;;;;;;;;29.45;34.64;100278.38;1071299;46;19947;31
2023/08/11 11:39:18;;;;;;;;;;;;;;;29.39;34.81;100293.22;1071202;47;20721;31
2023/08/11 11:40:20;;;;;;;;;;;;;;;29.14;34.99;100288.31;1074271;46;19954;31
2023/08/11 11:41:26;;;;;;;;;;;;;;;29.26;34.84;100283.47;1071014;54;20862;31
2023/08/11 11:42:30;;;;;;;;;;;;;;;29.27;34.91;100283.19;1071224;47;19954;31
2023/08/11 11:43:34;;;;;;;;;;;;;;;29.14;35.21;100280.91;1084564;47;19923;-88
2023/08/11 11:44:42;;;;;;;;;;;;;;;29.20;34.97;100284.50;1071463;54;19976;31
2023/08/11 11:48:03;;;;;;;;;;;;;;;29.04;35.35;100278.88;1070914;54;20009;31
2023/08/11 11:49:07;;;;;;;;;;;;;;;29.14;35.00;100277.31;1071487;46;20684;31
2023/08/11 11:50:12;;;;;;;;;;;;;;;28.75;35.89;100262.69;1071597;46;20026;31
2023/08/11 11:51:15;;;;;;;;;;;;;;;28.74;35.95;100266.53;1071215;54;21288;31
2023/08/11 11:52:20;;;;;;;;;;;;;;;28.85;36.04;100272.13;1071150;47;20191;31
2023/08/11 11:53:22;;;;;;;;;;;;;;;28.92;35.71;100268.06;1071375;46;19952;31
2023/08/11 11:54:29;;;;;;;;;;;;;;;29.05;35.50;100266.78;1071173;54;20070;31
2023/08/11 11:55:31;;;;;;;;;;;;;;;29.17;35.49;100271.28;1070818;47;20002;31
2023/08/11 11:58:43;;;;;;;;;;;;;;;29.32;34.94;100265.91;1080810;46;19926;-86
2023/08/11 11:59:48;;;;;;;;;;;;;;;29.42;34.76;100257.72;1071173;54;19961;31
2023/08/11 12:00:53;;;;;;;;;;;;;;;29.32;34.81;100259.56;1072918;31;21387;31
2023/08/11 12:03:06;;;;;;;;;;;;;;;29.45;34.70;100256.34;1071120;47;21422;31
2023/08/11 12:04:08;;;;;;;;;;;;;;;29.56;34.77;100260.84;1071298;47;19995;31
2023/08/11 12:06:17;;;;;;;;;;;;;;;29.61;34.74;100260.03;1071394;54;19980;31
2023/08/11 12:07:29;;;;;;;;;;;;;;;29.66;34.80;100259.22;1071373;46;20663;31
2023/08/11 12:08:34;;;;;;;;;;;;;;;29.56;34.56;100260.84;1071291;54;19947;31
2023/08/11 12:09:49;;;;;;;;;;;;;;;29.43;34.52;100258.53;1073944;39;20375;31
2023/08/11 12:10:56;;;;;;;;;;;;;;;29.49;34.53;100253.91;1071388;54;20765;31
2023/08/11 12:11:58;;;;;;;;;;;;;;;29.54;34.47;100262.22;1071048;47;20776;31
2023/08/11 12:13:05;;;;;;;;;;;;;;;29.57;34.42;100259.75;1070443;46;20842;31
2023/08/11 12:14:08;;;;;;;;;;;;;;;29.60;34.24;100254.81;1070248;47;20719;31
2023/08/11 12:15:17;;;;;;;;;;;;;;;29.60;34.39;100249.28;1070313;47;20001;31
2023/08/11 12:16:32;;;;;;;;;;;;;;;29.61;34.35;100256.47;1087866;46;19962;-86
2023/08/11 12:18:37;;;;;;;;;;;;;;;29.68;34.24;100257.06;1071230;54;19990;31
2023/08/11 12:19:38;;;;;;;;;;;;;;;29.69;34.07;100258.72;1074956;54;19977;-88
2023/08/11 12:21:58;;;;;;;;;;;;;;;29.69;33.94;100250.44;1075762;54;20783;-89
2023/08/11 12:23:02;;;;;;;;;;;;;;;29.53;34.30;100250.34;1084161;54;19946;-88
2023/08/11 12:28:34;;;;;;;;;;;;;;;29.74;34.04;100250.47;1070691;54;20013;31
2023/08/11 12:29:36;;;;;;;;;;;;;;;29.83;33.88;100248.84;1071117;54;20760;31
2023/08/11 12:31:52;;;;;;;;;;;;;;;29.83;34.06;100248.03;1089146;54;19927;31
2023/08/11 12:32:54;;;;;;;;;;;;;;;29.45;34.08;100247.28;1071481;46;19950;31
2023/08/11 12:33:59;;;;;;;;;;;;;;;29.46;34.25;100244.25;1071399;46;19958;31
2023/08/11 12:35:02;;;;;;;;;;;;;;;29.55;34.92;100244.59;1071329;46;20884;31
2023/08/11 12:36:08;;;;;;;;;;;;;;;29.68;34.48;100241.34;1074017;39;20218;31
2023/08/11 12:39:16;;;;;;;;;;;;;;;29.84;33.71;100242.25;1071435;46;20779;31
2023/08/11 12:40:22;;;;;;;;;;;;;;;29.75;33.89;100248.53;1071160;47;19958;31
2023/08/11 12:41:27;;;;;;;;;;;;;;;29.73;33.46;100241.38;1071285;46;19947;31
2023/08/11 12:43:36;;;;;;;;;;;;;;;29.63;33.63;100249.59;1086779;54;19942;-88
2023/08/11 12:45:56;;;;;;;;;;;;;;;29.78;33.77;100253.50;1071069;54;19954;31
2023/08/11 12:46:58;;;;;;;;;;;;;;;29.84;33.46;100238.69;1071072;46;20759;31
2023/08/11 12:48:06;;;;;;;;;;;;;;;29.91;33.27;100239.25;1071152;54;19953;31
2023/08/11 12:49:08;;;;;;;;;;;;;;;29.98;33.79;100239.84;1074497;39;20273;31
2023/08/11 12:50:13;;;;;;;;;;;;;;;29.76;33.76;100241.94;1071272;54;19958;31
2023/08/11 12:53:22;;;;;;;;;;;;;;;29.54;34.32;100240.19;1071454;46;19953;31
2023/08/11 12:54:24;;;;;;;;;;;;;;;29.35;34.39;100237.88;1071277;46;19946;31
2023/08/11 12:55:31;;;;;;;;;;;;;;;29.26;34.22;100244.94;1071217;54;21494;31
2023/08/11 12:56:35;;;;;;;;;;;;;;;29.32;34.89;100237.53;1071448;47;19946;31
2023/08/11 12:57:42;;;;;;;;;;;;;;;29.37;34.67;100246.69;1071294;46;20005;31
2023/08/11 12:58:44;;;;;;;;;;;;;;;29.48;34.63;100242.06;1074587;39;21325;31
2023/08/11 12:59:51;;;;;;;;;;;;;;;29.40;34.64;100245.34;1071261;54;21459;31
2023/08/11 13:00:53;;;;;;;;;;;;;;;29.51;34.60;100247.06;1071270;46;19946;31
2023/08/11 13:02:00;;;;;;;;;;;;;;;29.60;34.27;100250.13;1071423;46;21061;31
2023/08/11 13:03:02;;;;;;;;;;;;;;;29.70;34.46;100254.88;1074648;39;21268;31
2023/08/11 13:04:11;;;;;;;;;;;;;;;29.78;34.35;100248.00;1071073;47;19973;31
2023/08/11 13:05:13;;;;;;;;;;;;;;;29.81;33.83;100245.53;1071163;47;21382;31
2023/08/11 13:06:20;;;;;;;;;;;;;;;29.82;33.44;100241.69;1071257;46;20733;31
2023/08/11 13:08:25;;;;;;;;;;;;;;;29.92;33.69;100246.41;1089121;54;19975;-90
2023/08/11 13:09:29;;;;;;;;;;;;;;;29.90;33.65;100243.09;1071215;47;21026;31
2023/08/11 13:11:42;;;;;;;;;;;;;;;30.08;33.57;100240.97;1071131;54;20788;31
2023/08/11 13:12:46;;;;;;;;;;;;;;;30.14;33.91;100242.63;1071196;54;20709;31
2023/08/11 13:14:59;;;;;;;;;;;;;;;30.21;33.05;100246.00;1071468;54;20013;31
2023/08/11 13:16:00;;;;;;;;;;;;;;;30.19;33.25;100249.00;1087115;47;19962;-87
2023/08/11 13:20:47;;;;;;;;;;;;;;;30.21;33.18;100248.75;1075695;54;19946;31
2023/08/11 13:21:49;;;;;;;;;;;;;;;30.25;32.82;100246.28;1074553;39;21302;31
2023/08/11 13:25:06;;;;;;;;;;;;;;;30.27;33.10;100236.63;1074183;54;20005;31
2023/08/11 13:26:12;;;;;;;;;;;;;;;30.33;33.18;100238.28;1082954;47;21179;31
2023/08/11 13:29:39;;;;;;;;;;;;;;;30.28;33.02;100232.78;1070764;54;20739;31
2023/08/11 13:30:41;;;;;;;;;;;;;;;30.26;33.17;100234.97;1080195;47;19942;-87
2023/08/11 13:35:22;;;;;;;;;;;;;;;30.41;33.03;100230.59;1077912;47;20680;-88
2023/08/11 13:36:27;;;;;;;;;;;;;;;30.42;32.61;100232.25;1083630;47;21212;31
2023/08/11 13:40:01;;;;;;;;;;;;;;;30.46;32.82;100223.16;1073657;54;21013;31
2023/08/11 13:42:16;;;;;;;;;;;;;;;30.43;32.62;100233.88;1074069;54;21042;-87
2023/08/11 13:43:20;;;;;;;;;;;;;;;30.43;32.36;100223.72;1069354;54;19953;31
2023/08/11 13:45:29;;;;;;;;;;;;;;;30.43;32.63;100228.38;1082342;54;19969;31
2023/08/11 13:46:33;;;;;;;;;;;;;;;30.44;32.86;100219.00;1082987;47;19942;-90
2023/08/11 13:50:26;;;;;;;;;;;;;;;30.44;33.16;100230.88;1076839;54;20850;-89
2023/08/11 13:51:32;;;;;;;;;;;;;;;30.48;33.46;100225.63;1078051;47;20323;-86
2023/08/11 13:52:36;;;;;;;;;;;;;;;30.46;33.27;100216.81;1070911;54;19946;-86
2023/08/11 13:58:41;;;;;;;;;;;;;;;30.54;33.76;100212.72;1068461;54;20964;31
2023/08/11 13:59:43;;;;;;;;;;;;;;;30.35;34.29;100211.28;1068812;47;20795;31
2023/08/11 14:01:56;;;;;;;;;;;;;;;30.33;34.43;100218.97;1073850;39;21188;31
2023/08/11 14:02:58;;;;;;;;;;;;;;;30.29;34.28;100211.53;1068370;54;19946;31
2023/08/11 14:04:06;;;;;;;;;;;;;;;30.30;34.44;100216.78;1068473;47;19953;31
2023/08/11 14:05:09;;;;;;;;;;;;;;;30.27;34.42;100209.06;1067925;54;19973;31
2023/08/11 14:06:14;;;;;;;;;;;;;;;30.33;34.74;100213.47;1079061;54;20015;-89
2023/08/11 14:08:26;;;;;;;;;;;;;;;30.35;34.56;100204.94;1072855;54;20005;-86
2023/08/11 14:09:28;;;;;;;;;;;;;;;30.38;34.42;100203.56;1075958;47;19934;31
2023/08/11 14:10:32;;;;;;;;;;;;;;;30.48;34.55;100198.06;1087760;47;19923;-89
2023/08/11 14:12:54;;;;;;;;;;;;;;;30.45;34.73;100196.69;1069314;54;21221;31
2023/08/11 14:13:56;;;;;;;;;;;;;;;30.51;34.70;100194.78;1068933;47;19946;31
2023/08/11 14:17:05;;;;;;;;;;;;;;;30.64;34.36;100191.47;1073707;47;19946;-89
2023/08/11 14:19:11;;;;;;;;;;;;;;;30.67;34.55;100186.53;1089895;39;20609;31
2023/08/11 14:20:13;;;;;;;;;;;;;;;30.69;34.29;100192.59;1072104;47;19946;31
2023/08/11 14:21:18;;;;;;;;;;;;;;;30.72;34.19;100195.63;1068891;47;20025;31
2023/08/11 14:22:20;;;;;;;;;;;;;;;30.76;34.17;100193.94;1068501;54;21504;31
2023/08/11 14:24:30;;;;;;;;;;;;;;;30.61;34.48;100192.03;1068595;54;20974;31
2023/08/11 14:25:33;;;;;;;;;;;;;;;30.72;34.23;100186.50;1068584;47;20050;31
2023/08/11 14:30:02;;;;;;;;;;;;;;;30.71;34.09;100191.22;1087560;54;19931;-87
2023/08/11 14:33:29;;;;;;;;;;;;;;;30.71;34.18;100193.97;1072216;54;19950;-85
2023/08/11 14:35:47;;;;;;;;;;;;;;;30.80;33.88;100194.22;1080311;39;20384;-88
2023/08/11 14:36:49;;;;;;;;;;;;;;;30.74;34.14;100189.81;1075515;47;20369;31
2023/08/11 14:38:56;;;;;;;;;;;;;;;30.86;33.95;100176.59;1068236;54;19952;31
2023/08/11 14:46:58;;;;;;;;;;;;;;;30.84;34.37;100177.97;1088575;47;19943;-86
2023/08/11 14:48:01;;;;;;;;;;;;;;;30.92;34.15;100185.69;1088453;46;19923;-88
2023/08/11 14:49:04;;;;;;;;;;;;;;;30.99;34.26;100179.84;1087714;47;19975;-86
2023/08/11 14:50:06;;;;;;;;;;;;;;;31.07;34.17;100179.31;1088014;47;19951;-88
2023/08/11 14:51:09;;;;;;;;;;;;;;;30.99;34.56;100182.63;1088018;47;19975;-87
2023/08/11 14:52:10;;;;;;;;;;;;;;;31.06;34.27;100185.94;1087854;46;19946;-87
2023/08/11 14:53:11;;;;;;;;;;;;;;;31.06;34.19;100177.66;1087576;47;19938;-84
2023/08/11 14:54:14;;;;;;;;;;;;;;;31.04;34.11;100177.09;1087755;54;19950;-87
2023/08/11 14:55:15;;;;;;;;;;;;;;;30.76;35.14;100171.06;1087740;47;19948;-88
2023/08/11 15:01:58;;;;;;;;;;;;;;;30.86;34.90;100172.97;1085806;54;19927;-86
2023/08/11 15:12:07;;;;;;;;;;;;;;;30.87;35.09;100166.34;1070581;39;20291;31
2023/08/11 15:14:20;;;;;;;;;;;;;;;31.18;34.55;100160.81;1069291;54;19946;31
2023/08/11 15:20:56;;;;;;;;;;;;;;;32.15;33.42;100158.75;1068143;54;19958;31
2023/08/11 15:23:24;;;;;;;;;;;;;;;32.58;33.16;100145.16;1068343;54;19946;31
2023/08/11 15:25:43;;;;;;;;;;;;;;;32.90;32.21;100135.47;1068800;46;19958;31
2023/08/11 15:29:06;;;;;;;;;;;;;;;33.36;31.72;100133.34;1087634;47;19945;-87
2023/08/11 15:30:07;;;;;;;;;;;;;;;33.40;31.62;100129.69;1088061;54;19939;-88
2023/08/11 15:31:11;;;;;;;;;;;;;;;33.36;31.60;100122.25;1088017;54;19962;-86
2023/08/11 15:33:24;;;;;;;;;;;;;;;32.96;31.75;100119.66;1068818;54;19969;31
2023/08/11 15:35:31;;;;;;;;;;;;;;;32.74;32.36;100132.00;1068895;39;21159;31
2023/08/11 15:37:46;;;;;;;;;;;;;;;32.86;32.12;100109.50;1068044;54;20325;31
2023/08/11 15:41:25;;;;;;;;;;;;;;;33.24;31.63;100112.38;1068481;54;20782;31
2023/08/11 15:45:23;;;;;;;;;;;;;;;33.28;31.69;100110.69;1068131;54;21174;31
2023/08/11 15:46:28;;;;;;;;;;;;;;;33.25;31.59;100113.22;1068334;46;21465;31
2023/08/11 15:47:35;;;;;;;;;;;;;;;33.29;31.95;100105.97;1068226;46;20013;31
2023/08/11 15:48:37;;;;;;;;;;;;;;;33.26;31.96;100112.06;1068339;54;19972;31
2023/08/11 15:49:44;;;;;;;;;;;;;;;33.29;31.70;100111.50;1067938;46;19991;31
2023/08/11 15:53:45;;;;;;;;;;;;;;;33.09;31.82;100113.38;1068163;54;19946;31
2023/08/11 15:54:49;;;;;;;;;;;;;;;33.03;32.11;100113.72;1069239;46;19952;31
2023/08/11 15:58:09;;;;;;;;;;;;;;;33.19;31.85;100115.22;1069246;46;20005;31
2023/08/11 16:01:33;;;;;;;;;;;;;;;32.94;31.99;100119.09;1068413;39;21403;31
2023/08/11 16:02:36;;;;;;;;;;;;;;;32.95;32.09;100116.03;1068640;54;19985;31
2023/08/11 16:03:46;;;;;;;;;;;;;;;32.86;31.93;100128.88;1068540;46;21329;31
2023/08/11 16:07:26;;;;;;;;;;;;;;;32.62;32.28;100121.34;1067965;46;20296;31
2023/08/11 16:27:53;;;;;;;;;;;;;;;31.40;34.92;100111.59;1067915;54;21012;31
2023/08/11 16:42:42;;;;;;;;;;;;;;;31.13;36.31;100102.88;1069238;54;20461;31
2023/08/11 17:29:50;;;;;;;;;;;;;;;30.29;37.57;100073.69;1069271;54;19946;31
2023/08/11 18:16:04;;;;;;;;;;;;;;;29.52;40.59;100085.41;1087880;54;19991;-87
2023/08/11 18:18:10;;;;;;;;;;;;;;;29.50;40.47;100084.84;1087747;54;19950;-87
2023/08/11 18:19:11;;;;;;;;;;;;;;;29.50;40.51;100082.94;1087767;54;19995;-86
2023/08/11 18:20:14;;;;;;;;;;;;;;;29.48;40.66;100081.53;1087494;46;19939;-86
2023/08/11 18:21:15;;;;;;;;;;;;;;;29.44;41.19;100088.69;1087264;46;20014;-86
2023/08/11 18:22:19;;;;;;;;;;;;;;;29.42;41.17;100087.03;1086737;47;19938;-85
2023/08/11 18:23:20;;;;;;;;;;;;;;;29.39;41.07;100090.31;1087201;47;20009;-85
2023/08/11 18:24:24;;;;;;;;;;;;;;;29.37;41.32;100081.53;1088477;39;20034;-86
2023/08/11 18:25:25;;;;;;;;;;;;;;;29.35;40.96;100089.22;1087531;47;20017;-89
2023/08/11 18:26:29;;;;;;;;;;;;;;;29.34;41.30;100082.06;1087506;47;19951;-88
2023/08/11 18:27:30;;;;;;;;;;;;;;;29.31;41.45;100084.50;1086916;47;20678;-87
2023/08/11 18:28:34;;;;;;;;;;;;;;;29.31;41.25;100087.25;1087235;47;19954;-87
2023/08/11 18:29:34;;;;;;;;;;;;;;;29.28;41.23;100085.88;1087313;47;19949;-87
2023/08/11 18:30:38;;;;;;;;;;;;;;;29.27;41.26;100078.69;1087446;47;19958;-87
2023/08/11 18:31:41;;;;;;;;;;;;;;;29.18;42.04;100077.56;1087162;47;19966;-88
2023/08/11 18:32:45;;;;;;;;;;;;;;;29.19;41.61;100084.72;1087331;47;19942;-87
2023/08/11 18:33:45;;;;;;;;;;;;;;;29.11;41.91;100088.81;1087443;54;20011;-88
2023/08/11 18:34:49;;;;;;;;;;;;;;;29.14;41.50;100092.94;1087423;54;19987;-87
2023/08/11 18:35:50;;;;;;;;;;;;;;;29.10;41.84;100082.47;1087183;51;19949;-87
2023/08/11 18:36:53;;;;;;;;;;;;;;;29.10;41.75;100085.22;1087423;54;19998;-87
2023/08/11 18:37:55;;;;;;;;;;;;;;;29.09;41.54;100086.34;1088711;39;20898;-87
2023/08/11 18:38:58;;;;;;;;;;;;;;;29.07;41.59;100085.75;1087410;47;19942;-87
2023/08/11 18:39:59;;;;;;;;;;;;;;;29.00;42.22;100085.16;1087357;54;19942;-88